createdAt,value
2023-05-10T00:00:15.637Z,94.21
2023-05-10T00:02:48.401Z,94.31
2023-05-10T00:05:21.068Z,94.23
2023-05-10T00:07:53.532Z,94.00
2023-05-10T00:10:26.048Z,94.07
2023-05-10T00:12:58.503Z,93.87
2023-05-10T00:15:33.933Z,93.68
2023-05-10T00:18:06.473Z,94.08
2023-05-10T00:20:39.053Z,93.98
2023-05-10T00:23:11.514Z,94.02
2023-05-10T00:25:44.012Z,94.20
2023-05-10T00:28:16.398Z,94.24
2023-05-10T00:30:48.872Z,94.40
2023-05-10T00:33:21.443Z,94.16
2023-05-10T00:35:53.922Z,94.65
2023-05-10T00:38:26.764Z,95.24
2023-05-10T00:40:59.195Z,95.67
2023-05-10T00:43:31.686Z,95.36
2023-05-10T00:46:05.293Z,95.33
2023-05-10T00:48:37.877Z,95.70
2023-05-10T00:51:10.938Z,95.51
2023-05-10T00:53:45.139Z,95.80
2023-05-10T00:56:17.870Z,95.73
2023-05-10T00:58:50.564Z,96.24
2023-05-10T01:01:23.217Z,95.85
2023-05-10T01:03:56.349Z,95.87
2023-05-10T01:06:28.924Z,96.33
2023-05-10T01:09:01.454Z,96.07
2023-05-10T01:11:38.953Z,96.13
2023-05-10T01:14:11.701Z,95.93
2023-05-10T01:16:46.594Z,95.81
2023-05-10T01:19:27.673Z,96.25
2023-05-10T01:22:33.878Z,96.50
2023-05-10T01:25:23.735Z,96.20
2023-05-10T01:28:14.900Z,96.26
2023-05-10T01:31:08.608Z,95.90
2023-05-10T01:33:59.961Z,95.96
2023-05-10T01:36:39.505Z,95.88
2023-05-10T01:39:43.483Z,95.95
2023-05-10T01:42:21.093Z,95.63
2023-05-10T01:44:56.169Z,95.64
2023-05-10T01:48:04.181Z,95.88
2023-05-10T01:50:39.650Z,95.54
2023-05-10T01:53:14.119Z,95.45
2023-05-10T01:55:50.315Z,95.18
2023-05-10T01:58:31.380Z,94.95
2023-05-10T02:01:06.836Z,95.29
2023-05-10T02:03:40.920Z,94.92
2023-05-10T02:06:15.879Z,95.17
2023-05-10T02:08:50.316Z,95.68
2023-05-10T02:11:24.086Z,95.17
2023-05-10T02:13:58.170Z,94.93
2023-05-10T02:16:32.864Z,95.13
2023-05-10T02:19:06.332Z,95.42
2023-05-10T02:21:40.980Z,94.96
2023-05-10T02:24:14.960Z,95.27
2023-05-10T02:26:49.409Z,95.25
2023-05-10T02:29:24.345Z,94.82
2023-05-10T02:31:58.572Z,95.26
2023-05-10T02:34:32.090Z,94.78
2023-05-10T02:37:07.038Z,95.22
2023-05-10T02:39:44.589Z,95.04
2023-05-10T02:42:19.710Z,94.82
2023-05-10T02:44:57.021Z,94.64
2023-05-10T02:47:30.732Z,94.87
2023-05-10T02:50:03.684Z,94.72
2023-05-10T02:52:41.090Z,95.27
2023-05-10T02:55:17.178Z,94.53
2023-05-10T02:57:58.170Z,95.26
2023-05-10T03:00:30.861Z,95.69
2023-05-10T03:03:03.442Z,96.58
2023-05-10T03:05:36.061Z,96.61
2023-05-10T03:08:08.869Z,97.11
2023-05-10T03:10:56.593Z,96.61
2023-05-10T03:14:10.641Z,96.46
2023-05-10T03:16:48.160Z,96.65
2023-05-10T03:19:57.244Z,96.66
2023-05-10T03:22:33.321Z,96.71
2023-05-10T03:25:09.382Z,96.95
2023-05-10T03:27:44.361Z,97.04
2023-05-10T03:30:17.886Z,96.50
2023-05-10T03:32:50.780Z,96.65
2023-05-10T03:35:24.599Z,96.32
2023-05-10T03:37:57.084Z,96.50
2023-05-10T03:40:32.364Z,96.54
2023-05-10T03:43:05.167Z,95.94
2023-05-10T03:45:37.687Z,96.41
2023-05-10T03:48:10.801Z,95.76
2023-05-10T03:50:43.893Z,95.15
2023-05-10T03:53:16.976Z,95.58
2023-05-10T03:55:49.510Z,94.57
2023-05-10T03:58:22.794Z,95.41
2023-05-10T04:00:55.288Z,95.84
2023-05-10T04:03:28.058Z,95.20
2023-05-10T04:06:03.922Z,95.55
2023-05-10T04:08:36.418Z,95.38
2023-05-10T04:11:13.514Z,95.78
2023-05-10T04:13:46.049Z,96.14
2023-05-10T04:16:18.488Z,95.64
2023-05-10T04:18:51.496Z,95.68
2023-05-10T04:21:24.137Z,94.98
2023-05-10T04:23:56.546Z,95.29
2023-05-10T04:26:29.110Z,95.16
2023-05-10T04:29:01.587Z,94.93
2023-05-10T04:31:34.364Z,95.09
2023-05-10T04:34:06.872Z,94.70
2023-05-10T04:36:39.326Z,94.27
2023-05-10T04:39:11.736Z,93.46
2023-05-10T04:41:44.262Z,92.80
2023-05-10T04:44:16.737Z,92.74
2023-05-10T04:46:49.188Z,92.52
2023-05-10T04:49:21.728Z,92.64
2023-05-10T04:51:54.250Z,92.43
2023-05-10T04:54:26.706Z,92.27
2023-05-10T04:56:59.207Z,92.30
2023-05-10T04:59:31.619Z,91.62
2023-05-10T05:02:04.502Z,91.34
2023-05-10T05:04:37.165Z,91.84
2023-05-10T05:07:09.683Z,91.77
2023-05-10T05:09:42.135Z,91.25
2023-05-10T05:12:15.318Z,91.49
2023-05-10T05:14:47.810Z,91.03
2023-05-10T05:17:20.326Z,90.60
2023-05-10T05:19:52.728Z,90.71
2023-05-10T05:22:28.684Z,90.40
2023-05-10T05:25:02.798Z,91.65
2023-05-10T05:27:35.206Z,91.06
2023-05-10T05:30:08.152Z,90.82
2023-05-10T05:32:40.735Z,90.84
2023-05-10T05:35:13.366Z,90.66
2023-05-10T05:37:45.906Z,90.82
2023-05-10T05:40:18.400Z,91.21
2023-05-10T05:42:50.883Z,91.09
2023-05-10T05:45:23.355Z,91.30
2023-05-10T05:47:56.026Z,91.29
2023-05-10T05:50:28.574Z,91.41
2023-05-10T05:53:01.060Z,90.97
2023-05-10T05:55:33.543Z,90.24
2023-05-10T05:58:06.034Z,90.18
2023-05-10T06:00:38.536Z,90.00
2023-05-10T06:03:11.562Z,89.09
2023-05-10T06:05:44.813Z,89.47
2023-05-10T06:08:17.321Z,90.56
2023-05-10T06:10:49.771Z,90.39
2023-05-10T06:13:22.298Z,89.57
2023-05-10T06:15:54.721Z,89.66
2023-05-10T06:18:27.160Z,89.78
2023-05-10T06:20:59.661Z,89.63
2023-05-10T06:23:32.163Z,88.91
2023-05-10T06:26:04.822Z,88.51
2023-05-10T06:28:39.277Z,87.57
2023-05-10T06:31:12.823Z,86.44
2023-05-10T06:33:45.683Z,87.14
2023-05-10T06:36:18.152Z,86.52
2023-05-10T06:38:52.122Z,86.45
2023-05-10T06:41:24.953Z,86.75
2023-05-10T06:43:57.428Z,87.36
2023-05-10T06:46:29.910Z,86.82
2023-05-10T06:49:02.451Z,87.28
2023-05-10T06:51:35.112Z,87.58
2023-05-10T06:54:07.822Z,86.77
2023-05-10T06:56:40.407Z,86.36
2023-05-10T06:59:14.421Z,86.46
2023-05-10T07:01:47.052Z,86.77
2023-05-10T07:04:19.697Z,87.42
2023-05-10T07:06:52.161Z,87.97
2023-05-10T07:09:25.443Z,88.48
2023-05-10T07:11:58.607Z,88.98
2023-05-10T07:14:30.978Z,87.95
2023-05-10T07:17:03.448Z,88.35
2023-05-10T07:19:36.247Z,88.16
2023-05-10T07:22:08.755Z,87.12
2023-05-10T07:24:41.411Z,87.11
2023-05-10T07:27:14.087Z,87.20
2023-05-10T07:29:46.529Z,87.11
2023-05-10T07:32:19.288Z,86.92
2023-05-10T07:34:51.800Z,87.56
2023-05-10T07:37:24.244Z,87.42
2023-05-10T07:39:57.130Z,86.88
2023-05-10T07:42:29.564Z,87.01
2023-05-10T07:45:02.001Z,87.48
2023-05-10T07:47:34.574Z,87.76
2023-05-10T07:50:08.015Z,86.94
2023-05-10T07:52:40.416Z,85.96
2023-05-10T07:55:12.911Z,86.59
2023-05-10T07:57:45.845Z,86.41
2023-05-10T08:00:20.134Z,85.13
2023-05-10T08:02:52.573Z,85.22
2023-05-10T08:05:25.102Z,85.06
2023-05-10T08:07:57.547Z,84.62
2023-05-10T08:10:30.031Z,84.20
2023-05-10T08:13:02.509Z,83.77
2023-05-10T08:15:34.966Z,84.71
2023-05-10T08:18:07.515Z,83.29
2023-05-10T08:20:41.101Z,83.48
2023-05-10T08:23:14.131Z,82.52
2023-05-10T08:25:46.655Z,81.71
2023-05-10T08:28:19.218Z,81.70
2023-05-10T08:30:52.011Z,80.99
2023-05-10T08:33:24.568Z,80.88
2023-05-10T08:35:57.116Z,80.76
2023-05-10T08:38:29.661Z,78.97
2023-05-10T08:41:03.418Z,78.81
2023-05-10T08:43:36.878Z,77.06
2023-05-10T08:46:11.279Z,75.63
2023-05-10T08:48:45.505Z,76.32
2023-05-10T08:51:24.926Z,75.45
2023-05-10T08:53:57.916Z,74.58
2023-05-10T08:56:30.407Z,71.33
2023-05-10T08:59:02.870Z,71.50
2023-05-10T09:01:39.421Z,71.71
2023-05-10T09:04:13.067Z,68.08
2023-05-10T09:06:45.634Z,66.86
2023-05-10T09:09:19.484Z,68.63
2023-05-10T09:11:52.818Z,68.89
2023-05-10T09:14:26.045Z,68.01
2023-05-10T09:16:58.663Z,68.16
2023-05-10T09:19:31.215Z,68.05
2023-05-10T09:22:03.690Z,67.69
2023-05-10T09:24:37.826Z,66.12
2023-05-10T09:27:10.655Z,65.67
2023-05-10T09:29:43.924Z,65.85
2023-05-10T09:32:16.410Z,66.06
2023-05-10T09:34:51.029Z,65.14
2023-05-10T09:37:30.528Z,65.68
2023-05-10T09:40:06.061Z,65.07
2023-05-10T09:42:38.759Z,66.12
2023-05-10T09:45:11.243Z,65.78
2023-05-10T09:47:44.091Z,65.11
2023-05-10T09:50:16.649Z,66.53
2023-05-10T09:52:54.953Z,66.20
2023-05-10T09:55:39.799Z,67.81
2023-05-10T09:58:13.580Z,68.21
2023-05-10T10:00:48.722Z,68.08
2023-05-10T10:03:22.175Z,69.28
2023-05-10T10:05:56.950Z,68.96
2023-05-10T10:08:29.501Z,66.66
2023-05-10T10:11:02.432Z,67.57
2023-05-10T10:13:35.427Z,67.98
2023-05-10T10:16:09.774Z,67.45
2023-05-10T10:18:43.552Z,67.52
2023-05-10T10:21:16.288Z,67.44
2023-05-10T10:23:48.972Z,66.96
2023-05-10T10:26:22.393Z,66.24
2023-05-10T10:29:10.001Z,65.48
2023-05-10T10:31:57.892Z,64.38
2023-05-10T10:34:31.872Z,64.02
2023-05-10T10:37:07.985Z,61.42
2023-05-10T10:39:40.437Z,62.04
2023-05-10T10:42:12.978Z,61.20
2023-05-10T10:44:45.766Z,61.31
2023-05-10T10:47:25.474Z,61.70
2023-05-10T10:50:01.452Z,63.78
2023-05-10T10:52:44.429Z,65.23
2023-05-10T10:55:25.896Z,66.41
2023-05-10T10:58:01.774Z,66.30
2023-05-10T11:00:37.477Z,67.02
2023-05-10T11:03:15.701Z,65.67
2023-05-10T11:05:49.972Z,65.22
2023-05-10T11:08:30.668Z,65.32
2023-05-10T11:11:08.214Z,66.42
2023-05-10T11:13:42.815Z,65.53
2023-05-10T11:16:26.342Z,65.19
2023-05-10T11:19:08.666Z,65.86
2023-05-10T11:22:14.591Z,65.53
2023-05-10T11:24:57.850Z,65.92
2023-05-10T11:27:30.261Z,65.79
2023-05-10T11:30:06.767Z,65.65
2023-05-10T11:32:40.112Z,65.62
2023-05-10T11:35:13.096Z,66.43
2023-05-10T11:37:49.252Z,67.50
2023-05-10T11:40:25.481Z,70.33
2023-05-10T11:42:58.095Z,72.60
2023-05-10T11:45:33.490Z,75.61
2023-05-10T11:48:06.154Z,77.82
2023-05-10T11:50:38.797Z,80.13
2023-05-10T11:53:11.370Z,81.34
2023-05-10T11:55:44.480Z,83.50
2023-05-10T11:58:16.975Z,84.48
2023-05-10T12:00:49.743Z,86.05
2023-05-10T12:03:22.854Z,88.07
2023-05-10T12:05:56.868Z,86.81
2023-05-10T12:08:31.796Z,88.34
2023-05-10T12:11:09.642Z,88.80
2023-05-10T12:13:48.250Z,89.28
2023-05-10T12:16:26.148Z,88.26
2023-05-10T12:19:00.526Z,87.98
2023-05-10T12:21:34.210Z,88.21
2023-05-10T12:24:07.324Z,87.11
2023-05-10T12:26:52.128Z,86.92
2023-05-10T12:29:24.532Z,87.66
2023-05-10T12:31:59.309Z,87.69
2023-05-10T12:34:34.553Z,86.94
2023-05-10T12:37:07.641Z,86.61
2023-05-10T12:39:45.035Z,87.17
2023-05-10T12:42:17.548Z,86.23
2023-05-10T12:44:50.010Z,86.28
2023-05-10T12:47:22.454Z,86.73
2023-05-10T12:49:54.875Z,86.14
2023-05-10T12:52:27.498Z,86.57
2023-05-10T12:55:01.056Z,86.87
2023-05-10T12:57:33.482Z,87.29
2023-05-10T13:00:06.945Z,85.20
2023-05-10T13:02:39.454Z,85.80
2023-05-10T13:05:14.023Z,85.39
2023-05-10T13:07:46.504Z,84.99
2023-05-10T13:10:19.064Z,85.50
2023-05-10T13:12:51.929Z,85.44
2023-05-10T13:15:24.479Z,82.44
2023-05-10T13:17:56.924Z,82.50
2023-05-10T13:20:29.403Z,83.15
2023-05-10T13:23:01.880Z,81.83
2023-05-10T13:25:35.316Z,79.67
2023-05-10T13:28:07.907Z,79.65
2023-05-10T13:30:40.381Z,81.94
2023-05-10T13:33:13.068Z,81.99
2023-05-10T13:35:46.147Z,83.39
2023-05-10T13:38:19.469Z,83.63
2023-05-10T13:40:53.853Z,85.10
2023-05-10T13:43:26.436Z,84.78
2023-05-10T13:45:59.044Z,85.85
2023-05-10T13:48:31.466Z,86.73
2023-05-10T13:51:04.731Z,87.54
2023-05-10T13:53:37.441Z,86.63
2023-05-10T13:56:09.953Z,88.15
2023-05-10T13:58:42.514Z,86.93
2023-05-10T14:01:15.037Z,87.74
2023-05-10T14:03:47.675Z,88.75
2023-05-10T14:06:20.175Z,89.01
2023-05-10T14:08:52.934Z,89.89
2023-05-10T14:11:25.314Z,89.59
2023-05-10T14:13:57.709Z,89.69
2023-05-10T14:16:30.101Z,89.39
2023-05-10T14:19:02.716Z,89.65
2023-05-10T14:21:35.165Z,90.27
2023-05-10T14:24:08.112Z,90.70
2023-05-10T14:26:40.509Z,90.95
2023-05-10T14:29:12.960Z,91.25
2023-05-10T14:31:45.406Z,90.88
2023-05-10T14:34:17.967Z,90.63
2023-05-10T14:36:50.868Z,90.55
2023-05-10T14:39:23.759Z,90.36
2023-05-10T14:41:56.463Z,90.47
2023-05-10T14:44:29.220Z,90.75
2023-05-10T14:47:01.669Z,90.61
2023-05-10T14:49:34.148Z,90.21
2023-05-10T14:52:06.584Z,89.37
2023-05-10T14:54:39.657Z,89.62
2023-05-10T14:57:12.164Z,90.27
2023-05-10T14:59:44.565Z,91.83
2023-05-10T15:02:17.531Z,92.68
2023-05-10T15:04:50.561Z,93.08
2023-05-10T15:07:23.399Z,92.17
2023-05-10T15:09:55.913Z,91.34
2023-05-10T15:12:28.403Z,90.54
2023-05-10T15:15:00.851Z,90.34
2023-05-10T15:17:33.851Z,89.15
2023-05-10T15:20:07.116Z,89.08
2023-05-10T15:22:39.508Z,89.85
2023-05-10T15:25:11.979Z,89.38
2023-05-10T15:27:44.665Z,88.31
2023-05-10T15:30:17.145Z,87.84
2023-05-10T15:32:49.811Z,87.99
2023-05-10T15:35:22.365Z,88.06
2023-05-10T15:37:54.803Z,88.06
2023-05-10T15:40:27.225Z,87.56
2023-05-10T15:42:59.623Z,87.95
2023-05-10T15:45:32.227Z,87.44
2023-05-10T15:48:05.210Z,87.92
2023-05-10T15:50:37.697Z,88.95
2023-05-10T15:53:10.179Z,89.44
2023-05-10T15:55:44.026Z,89.62
2023-05-10T15:58:16.757Z,89.82
2023-05-10T16:00:49.432Z,89.99
2023-05-10T16:03:21.943Z,90.18
2023-05-10T16:05:54.854Z,91.16
2023-05-10T16:08:30.680Z,90.77
2023-05-10T16:11:03.531Z,90.66
2023-05-10T16:13:36.057Z,90.80
2023-05-10T16:16:08.970Z,90.79
2023-05-10T16:18:41.809Z,91.08
2023-05-10T16:21:14.421Z,91.55
2023-05-10T16:23:47.021Z,91.37
2023-05-10T16:26:19.427Z,91.16
2023-05-10T16:28:52.241Z,91.43
2023-05-10T16:31:24.742Z,91.90
2023-05-10T16:33:57.209Z,92.06
2023-05-10T16:36:29.718Z,91.71
2023-05-10T16:39:02.632Z,91.75
2023-05-10T16:41:35.276Z,91.96
2023-05-10T16:44:07.793Z,91.74
2023-05-10T16:46:40.773Z,91.63
2023-05-10T16:49:13.977Z,91.01
2023-05-10T16:51:46.594Z,90.78
2023-05-10T16:54:20.178Z,90.63
2023-05-10T16:56:52.648Z,90.86
2023-05-10T16:59:25.264Z,90.70
2023-05-10T17:01:57.869Z,90.93
2023-05-10T17:04:30.642Z,91.11
2023-05-10T17:07:03.665Z,90.88
2023-05-10T17:09:36.373Z,91.02
2023-05-10T17:12:08.858Z,90.82
2023-05-10T17:14:41.285Z,91.21
2023-05-10T17:17:13.781Z,90.97
2023-05-10T17:19:46.288Z,90.86
2023-05-10T17:22:18.863Z,91.00
2023-05-10T17:24:51.367Z,91.24
2023-05-10T17:27:23.801Z,91.16
2023-05-10T17:29:59.663Z,90.95
2023-05-10T17:32:32.255Z,91.50
2023-05-10T17:35:06.112Z,91.35
2023-05-10T17:37:38.721Z,91.37
2023-05-10T17:40:11.574Z,91.56
2023-05-10T17:42:44.458Z,91.60
2023-05-10T17:45:17.407Z,91.45
2023-05-10T17:47:50.096Z,90.90
2023-05-10T17:50:22.617Z,91.20
2023-05-10T17:52:55.136Z,91.42
2023-05-10T17:55:30.030Z,91.15
2023-05-10T17:58:02.551Z,91.14
2023-05-10T18:00:35.934Z,90.98
2023-05-10T18:03:08.711Z,90.77
2023-05-10T18:05:41.377Z,90.33
2023-05-10T18:08:14.994Z,90.26
2023-05-10T18:10:47.401Z,90.40
2023-05-10T18:13:19.923Z,90.26
2023-05-10T18:15:52.551Z,89.68
2023-05-10T18:18:25.529Z,88.22
2023-05-10T18:20:58.312Z,87.22
2023-05-10T18:23:31.081Z,85.59
2023-05-10T18:26:03.704Z,84.69
2023-05-10T18:28:37.110Z,82.84
2023-05-10T18:31:09.776Z,81.10
2023-05-10T18:33:42.310Z,80.96
2023-05-10T18:36:15.027Z,80.36
2023-05-10T18:38:47.429Z,80.08
2023-05-10T18:41:20.007Z,80.47
2023-05-10T18:43:53.028Z,81.90
2023-05-10T18:46:25.726Z,82.76
2023-05-10T18:48:58.307Z,83.96
2023-05-10T18:51:31.517Z,85.23
2023-05-10T18:54:04.521Z,86.11
2023-05-10T18:56:36.995Z,86.31
2023-05-10T18:59:09.573Z,87.09
2023-05-10T19:01:42.121Z,87.07
2023-05-10T19:04:14.697Z,87.47
2023-05-10T19:06:47.263Z,87.98
2023-05-10T19:09:23.003Z,88.02
2023-05-10T19:11:55.614Z,88.65
2023-05-10T19:14:28.746Z,88.85
2023-05-10T19:17:03.430Z,89.36
2023-05-10T19:19:36.039Z,89.57
2023-05-10T19:22:08.726Z,90.63
2023-05-10T19:24:41.201Z,90.06
2023-05-10T19:27:14.915Z,89.96
2023-05-10T19:29:47.737Z,90.24
2023-05-10T19:32:23.333Z,90.36
2023-05-10T19:34:56.533Z,90.16
2023-05-10T19:37:28.984Z,91.23
2023-05-10T19:40:01.604Z,90.85
2023-05-10T19:42:39.768Z,91.21
2023-05-10T19:45:12.365Z,92.04
2023-05-10T19:47:45.110Z,91.59
2023-05-10T19:50:18.346Z,91.55
2023-05-10T19:52:54.302Z,92.17
2023-05-10T19:55:34.062Z,92.03
2023-05-10T19:58:06.533Z,92.44
2023-05-10T20:00:38.972Z,92.24
2023-05-10T20:03:11.655Z,92.15
2023-05-10T20:05:44.181Z,92.55
2023-05-10T20:08:16.855Z,92.34
2023-05-10T20:10:49.322Z,92.06
2023-05-10T20:13:21.887Z,91.94
2023-05-10T20:16:00.550Z,91.95
2023-05-10T20:18:33.577Z,92.24
2023-05-10T20:21:06.477Z,92.43
2023-05-10T20:23:38.988Z,92.55
2023-05-10T20:26:14.153Z,92.95
2023-05-10T20:28:46.552Z,92.98
2023-05-10T20:31:19.111Z,93.27
2023-05-10T20:33:51.622Z,93.13
2023-05-10T20:36:24.507Z,93.16
2023-05-10T20:38:58.956Z,93.00
2023-05-10T20:41:31.439Z,92.94
2023-05-10T20:44:05.534Z,93.12
2023-05-10T20:46:38.092Z,93.07
2023-05-10T20:49:10.646Z,93.33
2023-05-10T20:51:43.112Z,93.58
2023-05-10T20:54:15.654Z,93.16
2023-05-10T20:56:48.269Z,93.23
2023-05-10T20:59:21.832Z,93.13
2023-05-10T21:01:54.486Z,93.41
2023-05-10T21:04:27.230Z,93.62
2023-05-10T21:06:59.758Z,93.44
2023-05-10T21:09:32.345Z,93.10
2023-05-10T21:12:05.065Z,93.20
2023-05-10T21:14:37.565Z,93.47
2023-05-10T21:17:10.206Z,93.32
2023-05-10T21:19:42.842Z,93.42
2023-05-10T21:22:15.373Z,93.03
2023-05-10T21:24:47.790Z,93.04
2023-05-10T21:27:20.660Z,93.05
2023-05-10T21:29:53.548Z,93.69
2023-05-10T21:32:26.082Z,93.46
2023-05-10T21:34:58.516Z,93.39
2023-05-10T21:37:31.100Z,93.66
2023-05-10T21:40:04.737Z,93.58
2023-05-10T21:42:37.294Z,94.11
2023-05-10T21:45:10.188Z,93.88
2023-05-10T21:47:42.629Z,93.50
2023-05-10T21:50:15.451Z,93.38
2023-05-10T21:52:48.083Z,93.32
2023-05-10T21:55:20.588Z,93.33
2023-05-10T21:57:53.026Z,93.44
2023-05-10T22:00:25.483Z,93.24
2023-05-10T22:02:58.107Z,93.05
2023-05-10T22:05:30.742Z,92.82
2023-05-10T22:08:03.235Z,92.86
2023-05-10T22:10:35.731Z,92.79
2023-05-10T22:13:08.194Z,92.91
2023-05-10T22:15:40.773Z,92.77
2023-05-10T22:18:13.310Z,93.46
2023-05-10T22:20:46.614Z,92.79
2023-05-10T22:23:19.085Z,92.97
2023-05-10T22:25:51.563Z,92.92
2023-05-10T22:28:23.949Z,93.14
2023-05-10T22:30:56.614Z,93.19
2023-05-10T22:33:29.165Z,92.72
2023-05-10T22:36:01.565Z,92.71
2023-05-10T22:38:34.030Z,92.68
2023-05-10T22:41:06.664Z,92.55
2023-05-10T22:43:39.400Z,92.54
2023-05-10T22:46:12.133Z,92.50
2023-05-10T22:48:44.636Z,92.44
2023-05-10T22:51:17.195Z,92.28
2023-05-10T22:53:49.659Z,92.66
2023-05-10T22:56:22.560Z,92.53
2023-05-10T22:58:55.098Z,92.45
2023-05-10T23:01:27.584Z,92.76
2023-05-10T23:03:59.981Z,92.63
2023-05-10T23:06:33.078Z,92.60
2023-05-10T23:09:05.753Z,92.56
2023-05-10T23:11:38.181Z,92.46
2023-05-10T23:14:10.691Z,92.89
2023-05-10T23:16:43.203Z,92.73
2023-05-10T23:19:15.718Z,92.85
2023-05-10T23:21:48.143Z,92.71
2023-05-10T23:24:20.635Z,92.67
2023-05-10T23:26:53.115Z,92.82
2023-05-10T23:29:26.343Z,92.74
2023-05-10T23:31:58.929Z,93.04
2023-05-10T23:34:32.210Z,92.79
2023-05-10T23:37:04.605Z,92.72
2023-05-10T23:39:37.006Z,92.78
2023-05-10T23:42:09.445Z,92.78
2023-05-10T23:44:41.974Z,93.20
2023-05-10T23:47:14.532Z,92.71
2023-05-10T23:49:46.996Z,92.69
2023-05-10T23:52:22.699Z,92.93
2023-05-10T23:54:55.294Z,92.61
2023-05-10T23:57:27.760Z,93.04
